createdAt,value
2022-09-09T00:00:03.275Z,15.65
2022-09-09T00:02:30.113Z,15.71
2022-09-09T00:04:56.488Z,15.41
2022-09-09T00:07:25.823Z,15.58
2022-09-09T00:09:52.089Z,15.39
2022-09-09T00:12:18.348Z,15.60
2022-09-09T00:14:45.003Z,15.54
2022-09-09T00:17:11.344Z,15.61
2022-09-09T00:19:37.608Z,15.59
2022-09-09T00:22:03.914Z,15.47
2022-09-09T00:24:30.180Z,15.47
2022-09-09T00:26:56.529Z,15.42
2022-09-09T00:29:22.787Z,15.46
2022-09-09T00:31:49.036Z,15.47
2022-09-09T00:34:15.294Z,15.44
2022-09-09T00:36:41.589Z,15.10
2022-09-09T00:39:07.856Z,15.24
2022-09-09T00:41:34.190Z,15.16
2022-09-09T00:44:00.492Z,15.22
2022-09-09T00:46:26.844Z,15.28
2022-09-09T00:48:53.334Z,15.14
2022-09-09T00:51:19.620Z,15.25
2022-09-09T00:53:45.890Z,15.24
2022-09-09T00:56:12.150Z,15.27
2022-09-09T00:58:38.469Z,15.20
2022-09-09T01:01:07.405Z,15.06
2022-09-09T01:03:33.724Z,15.08
2022-09-09T01:05:59.981Z,15.11
2022-09-09T01:08:26.229Z,15.15
2022-09-09T01:10:54.125Z,15.14
2022-09-09T01:13:20.391Z,15.10
2022-09-09T01:15:47.380Z,15.09
2022-09-09T01:18:13.710Z,15.08
2022-09-09T01:20:40.224Z,15.03
2022-09-09T01:23:06.523Z,15.10
2022-09-09T01:25:32.807Z,14.67
2022-09-09T01:27:59.178Z,14.60
2022-09-09T01:30:25.454Z,14.82
2022-09-09T01:32:51.757Z,14.90
2022-09-09T01:35:18.023Z,14.63
2022-09-09T01:37:44.287Z,14.76
2022-09-09T01:40:10.595Z,14.82
2022-09-09T01:42:37.064Z,14.80
2022-09-09T01:45:03.357Z,14.67
2022-09-09T01:47:29.628Z,14.60
2022-09-09T01:49:55.886Z,14.66
2022-09-09T01:52:22.143Z,14.76
2022-09-09T01:54:48.470Z,14.81
2022-09-09T01:57:14.741Z,14.87
2022-09-09T01:59:41.012Z,14.73
2022-09-09T02:02:07.315Z,14.70
2022-09-09T02:04:33.638Z,14.65
2022-09-09T02:06:59.918Z,14.62
2022-09-09T02:09:26.196Z,14.62
2022-09-09T02:11:52.508Z,14.64
2022-09-09T02:14:18.776Z,14.58
2022-09-09T02:16:45.144Z,14.59
2022-09-09T02:19:13.035Z,14.58
2022-09-09T02:21:40.443Z,14.60
2022-09-09T02:24:08.860Z,14.48
2022-09-09T02:26:35.164Z,14.55
2022-09-09T02:29:01.492Z,14.59
2022-09-09T02:31:27.782Z,14.58
2022-09-09T02:33:54.047Z,14.55
2022-09-09T02:36:20.633Z,14.53
2022-09-09T02:38:47.017Z,14.52
2022-09-09T02:41:13.277Z,14.51
2022-09-09T02:43:39.535Z,14.52
2022-09-09T02:46:05.951Z,14.52
2022-09-09T02:48:32.343Z,14.41
2022-09-09T02:50:58.635Z,14.34
2022-09-09T02:53:24.887Z,14.39
2022-09-09T02:55:51.221Z,14.28
2022-09-09T02:58:20.605Z,14.30
2022-09-09T03:00:46.934Z,14.31
2022-09-09T03:03:13.206Z,14.29
2022-09-09T03:05:39.725Z,14.38
2022-09-09T03:08:06.482Z,14.27
2022-09-09T03:10:32.825Z,14.39
2022-09-09T03:12:59.083Z,14.07
2022-09-09T03:15:25.493Z,14.17
2022-09-09T03:17:52.120Z,14.18
2022-09-09T03:20:18.476Z,14.25
2022-09-09T03:22:45.942Z,14.04
2022-09-09T03:25:12.208Z,14.13
2022-09-09T03:27:38.521Z,14.08
2022-09-09T03:30:04.941Z,14.09
2022-09-09T03:32:32.243Z,14.23
2022-09-09T03:34:58.504Z,14.26
2022-09-09T03:37:24.833Z,13.99
2022-09-09T03:39:51.161Z,14.14
2022-09-09T03:42:20.473Z,14.20
2022-09-09T03:44:50.939Z,14.17
2022-09-09T03:47:17.207Z,14.25
2022-09-09T03:49:43.466Z,14.23
2022-09-09T03:52:09.755Z,14.12
2022-09-09T03:54:36.576Z,14.22
2022-09-09T03:57:02.859Z,14.11
2022-09-09T03:59:29.115Z,14.11
2022-09-09T04:01:55.740Z,14.22
2022-09-09T04:04:22.107Z,14.22
2022-09-09T04:06:49.357Z,14.24
2022-09-09T04:09:15.616Z,14.23
2022-09-09T04:11:41.899Z,14.30
2022-09-09T04:14:08.163Z,14.20
2022-09-09T04:16:34.785Z,14.24
2022-09-09T04:19:02.243Z,14.18
2022-09-09T04:21:28.530Z,14.12
2022-09-09T04:23:54.783Z,14.24
2022-09-09T04:26:21.124Z,14.26
2022-09-09T04:28:47.889Z,14.31
2022-09-09T04:31:14.231Z,14.34
2022-09-09T04:33:41.113Z,14.34
2022-09-09T04:36:07.372Z,14.42
2022-09-09T04:38:33.682Z,14.46
2022-09-09T04:41:00.045Z,14.46
2022-09-09T04:43:27.919Z,14.45
2022-09-09T04:45:56.253Z,14.44
2022-09-09T04:48:25.475Z,14.53
2022-09-09T04:50:51.821Z,14.58
2022-09-09T04:53:18.597Z,14.59
2022-09-09T04:55:44.860Z,14.64
2022-09-09T04:58:11.116Z,14.61
2022-09-09T05:00:37.426Z,14.67
2022-09-09T05:03:03.987Z,14.68
2022-09-09T05:05:30.291Z,14.72
2022-09-09T05:07:56.552Z,14.85
2022-09-09T05:10:23.275Z,14.80
2022-09-09T05:12:49.553Z,14.83
2022-09-09T05:15:15.871Z,14.90
2022-09-09T05:17:42.262Z,14.94
2022-09-09T05:20:10.698Z,14.99
2022-09-09T05:22:38.577Z,15.05
2022-09-09T05:25:04.849Z,15.08
2022-09-09T05:27:32.394Z,15.14
2022-09-09T05:29:59.022Z,15.21
2022-09-09T05:32:25.340Z,15.25
2022-09-09T05:34:52.507Z,15.30
2022-09-09T05:37:19.237Z,15.19
2022-09-09T05:39:45.591Z,15.34
2022-09-09T05:42:11.875Z,15.43
2022-09-09T05:44:38.310Z,15.52
2022-09-09T05:47:04.603Z,15.62
2022-09-09T05:49:30.954Z,15.64
2022-09-09T05:51:57.233Z,15.70
2022-09-09T05:54:23.852Z,15.77
2022-09-09T05:56:53.610Z,15.86
2022-09-09T05:59:19.888Z,15.84
2022-09-09T06:01:46.379Z,15.88
2022-09-09T06:04:13.355Z,15.93
2022-09-09T06:06:40.810Z,16.04
2022-09-09T06:09:14.411Z,16.13
2022-09-09T06:11:40.662Z,16.11
2022-09-09T06:14:06.992Z,16.18
2022-09-09T06:16:38.484Z,16.08
2022-09-09T06:19:04.933Z,16.07
2022-09-09T06:21:31.217Z,16.28
2022-09-09T06:24:00.863Z,16.36
2022-09-09T06:26:27.564Z,16.43
2022-09-09T06:28:53.916Z,16.40
2022-09-09T06:31:26.891Z,16.39
2022-09-09T06:33:56.092Z,16.40
2022-09-09T06:36:22.401Z,16.38
2022-09-09T06:38:48.692Z,16.37
2022-09-09T06:41:14.948Z,16.39
2022-09-09T06:43:41.209Z,16.45
2022-09-09T06:46:09.108Z,16.58
2022-09-09T06:48:35.468Z,16.74
2022-09-09T06:51:02.443Z,16.92
2022-09-09T06:53:30.722Z,17.23
2022-09-09T06:55:57.232Z,17.37
2022-09-09T06:58:23.487Z,17.50
2022-09-09T07:00:50.323Z,17.46
2022-09-09T07:03:16.624Z,17.69
2022-09-09T07:05:42.909Z,17.63
2022-09-09T07:08:09.635Z,17.83
2022-09-09T07:10:36.412Z,17.86
2022-09-09T07:13:03.155Z,18.06
2022-09-09T07:15:29.430Z,17.91
2022-09-09T07:17:55.692Z,17.79
2022-09-09T07:20:21.961Z,17.91
2022-09-09T07:22:48.228Z,18.04
2022-09-09T07:25:15.165Z,18.15
2022-09-09T07:27:41.616Z,18.27
2022-09-09T07:30:10.574Z,18.32
2022-09-09T07:32:36.828Z,18.76
2022-09-09T07:35:03.107Z,18.83
2022-09-09T07:37:29.355Z,19.12
2022-09-09T07:39:56.037Z,19.18
2022-09-09T07:42:22.344Z,19.04
2022-09-09T07:44:48.619Z,19.32
2022-09-09T07:47:14.922Z,19.27
2022-09-09T07:49:41.798Z,19.51
2022-09-09T07:54:39.374Z,19.83
2022-09-09T07:57:05.627Z,19.84
2022-09-09T07:59:31.934Z,19.68
2022-09-09T08:01:59.160Z,19.46
2022-09-09T08:04:26.064Z,19.63
2022-09-09T08:06:53.762Z,20.07
2022-09-09T08:09:20.027Z,20.20
2022-09-09T08:11:46.298Z,20.12
2022-09-09T08:14:12.568Z,20.07
2022-09-09T08:16:38.987Z,20.23
2022-09-09T08:19:05.248Z,20.39
2022-09-09T08:21:32.558Z,20.20
2022-09-09T08:23:58.826Z,20.22
2022-09-09T08:26:25.079Z,20.15
2022-09-09T08:28:54.330Z,20.15
2022-09-09T08:31:20.737Z,20.37
2022-09-09T08:33:47.050Z,20.55
2022-09-09T08:36:13.319Z,20.68
2022-09-09T08:38:39.599Z,20.97
2022-09-09T08:41:05.928Z,20.58
2022-09-09T08:43:33.153Z,20.69
2022-09-09T08:46:00.999Z,20.73
2022-09-09T08:48:27.293Z,20.85
2022-09-09T08:50:53.579Z,21.00
2022-09-09T08:53:20.981Z,21.01
2022-09-09T08:55:47.342Z,20.78
2022-09-09T08:58:13.595Z,20.94
2022-09-09T09:00:39.875Z,21.05
2022-09-09T09:03:06.741Z,21.31
2022-09-09T09:05:33.528Z,21.43
2022-09-09T09:07:59.796Z,21.48
2022-09-09T09:10:40.950Z,21.23
2022-09-09T09:13:08.369Z,21.12
2022-09-09T09:15:37.271Z,21.08
2022-09-09T09:18:03.623Z,21.22
2022-09-09T09:20:31.016Z,21.34
2022-09-09T09:22:57.309Z,21.14
2022-09-09T09:25:23.616Z,20.94
2022-09-09T09:27:49.919Z,19.28
2022-09-09T09:30:26.712Z,19.10
2022-09-09T09:32:56.004Z,19.34
2022-09-09T09:35:22.493Z,19.39
2022-09-09T09:40:35.031Z,19.71
2022-09-09T09:43:01.480Z,20.03
2022-09-09T09:45:29.936Z,20.27
2022-09-09T09:48:00.628Z,20.37
2022-09-09T09:50:29.327Z,20.55
2022-09-09T09:52:56.487Z,20.60
2022-09-09T09:55:23.807Z,20.84
2022-09-09T09:57:50.130Z,20.89
2022-09-09T10:00:18.098Z,21.03
2022-09-09T10:02:44.915Z,20.77
2022-09-09T10:05:11.110Z,21.12
2022-09-09T10:07:38.301Z,21.30
2022-09-09T10:10:04.593Z,21.36
2022-09-09T10:12:30.905Z,21.18
2022-09-09T10:15:00.484Z,21.21
2022-09-09T10:17:28.116Z,21.43
2022-09-09T10:19:56.093Z,21.43
2022-09-09T10:22:22.587Z,21.27
2022-09-09T10:24:51.519Z,21.20
2022-09-09T10:27:17.784Z,21.19
2022-09-09T10:29:44.920Z,21.40
2022-09-09T10:32:11.535Z,21.44
2022-09-09T10:34:37.798Z,21.39
2022-09-09T10:37:04.682Z,21.34
2022-09-09T10:39:30.927Z,21.47
2022-09-09T10:41:58.436Z,21.58
2022-09-09T10:44:24.697Z,21.34
2022-09-09T10:46:50.956Z,21.70
2022-09-09T10:49:22.029Z,21.58
2022-09-09T10:51:50.573Z,21.84
2022-09-09T10:54:16.852Z,21.80
2022-09-09T10:56:43.136Z,22.01
2022-09-09T10:59:09.511Z,21.88
2022-09-09T11:01:35.801Z,22.14
2022-09-09T11:04:02.149Z,21.97
2022-09-09T11:06:29.055Z,22.34
2022-09-09T11:08:57.054Z,22.13
2022-09-09T11:11:23.479Z,21.97
2022-09-09T11:13:49.779Z,22.09
2022-09-09T11:16:16.112Z,22.14
2022-09-09T11:18:42.390Z,22.35
2022-09-09T11:21:08.647Z,22.19
2022-09-09T11:23:37.742Z,22.23
2022-09-09T11:26:08.385Z,22.16
2022-09-09T11:28:34.897Z,22.17
2022-09-09T11:31:01.237Z,22.05
2022-09-09T11:33:27.569Z,22.14
2022-09-09T11:35:53.837Z,22.68
2022-09-09T11:38:20.095Z,22.83
2022-09-09T11:40:46.804Z,23.26
2022-09-09T11:43:13.600Z,23.28
2022-09-09T11:45:39.909Z,23.42
2022-09-09T11:48:06.994Z,23.55
2022-09-09T11:50:33.346Z,23.12
2022-09-09T11:53:00.282Z,22.95
2022-09-09T11:55:27.366Z,22.90
2022-09-09T11:57:53.711Z,22.97
2022-09-09T12:00:19.969Z,23.22
2022-09-09T12:02:46.249Z,22.96
2022-09-09T12:05:13.048Z,23.11
2022-09-09T12:07:39.842Z,23.54
2022-09-09T12:10:06.207Z,23.63
2022-09-09T12:12:32.776Z,23.49
2022-09-09T12:15:00.136Z,23.45
2022-09-09T12:17:26.456Z,22.97
2022-09-09T12:19:52.718Z,22.95
2022-09-09T12:22:19.128Z,23.32
2022-09-09T12:24:45.611Z,23.25
2022-09-09T12:27:11.881Z,23.08
2022-09-09T12:29:38.168Z,22.99
2022-09-09T12:32:04.420Z,22.98
2022-09-09T12:34:31.495Z,23.03
2022-09-09T12:37:07.830Z,23.07
2022-09-09T12:39:34.774Z,23.17
2022-09-09T12:42:01.128Z,23.31
2022-09-09T12:44:29.315Z,23.22
2022-09-09T12:46:56.477Z,23.31
2022-09-09T12:49:22.798Z,23.19
2022-09-09T12:51:49.368Z,23.10
2022-09-09T12:54:16.153Z,23.30
2022-09-09T12:56:42.411Z,23.12
2022-09-09T12:59:08.684Z,23.01
2022-09-09T13:01:35.034Z,23.01
2022-09-09T13:04:03.281Z,23.34
2022-09-09T13:06:29.747Z,23.50
2022-09-09T13:08:56.095Z,23.42
2022-09-09T13:11:22.410Z,23.18
2022-09-09T13:13:52.300Z,23.24
2022-09-09T13:16:18.582Z,23.63
2022-09-09T13:18:44.891Z,23.91
2022-09-09T13:21:11.189Z,24.10
2022-09-09T13:23:37.703Z,24.16
2022-09-09T13:26:05.026Z,24.18
2022-09-09T13:28:33.706Z,24.10
2022-09-09T13:31:03.307Z,24.10
2022-09-09T13:33:30.218Z,24.16
2022-09-09T13:35:56.483Z,24.20
2022-09-09T13:38:27.044Z,24.03
2022-09-09T13:40:54.127Z,24.07
2022-09-09T13:43:22.087Z,24.14
2022-09-09T13:45:48.488Z,24.07
2022-09-09T13:48:14.939Z,24.03
2022-09-09T13:50:42.467Z,23.92
2022-09-09T13:53:09.363Z,23.80
2022-09-09T13:55:35.553Z,23.89
2022-09-09T13:58:01.817Z,23.96
2022-09-09T14:00:28.105Z,23.75
2022-09-09T14:02:55.943Z,23.84
2022-09-09T14:05:23.101Z,23.80
2022-09-09T14:07:53.055Z,23.76
2022-09-09T14:10:19.716Z,23.84
2022-09-09T14:12:47.562Z,23.56
2022-09-09T14:15:13.850Z,23.62
2022-09-09T14:17:40.222Z,23.90
2022-09-09T14:20:13.280Z,23.65
2022-09-09T14:22:40.240Z,23.77
2022-09-09T14:25:07.060Z,24.15
2022-09-09T14:27:33.565Z,24.32
2022-09-09T14:30:00.920Z,24.08
2022-09-09T14:32:27.203Z,24.17
2022-09-09T14:34:53.470Z,24.42
2022-09-09T14:37:19.769Z,24.38
2022-09-09T14:39:47.910Z,24.07
2022-09-09T14:42:14.214Z,24.25
2022-09-09T14:44:40.921Z,24.29
2022-09-09T14:47:09.007Z,24.32
2022-09-09T14:49:35.268Z,24.16
2022-09-09T14:52:01.826Z,24.31
2022-09-09T14:54:29.075Z,24.28
2022-09-09T14:56:55.323Z,24.14
2022-09-09T14:59:22.321Z,24.01
2022-09-09T15:01:48.640Z,24.02
2022-09-09T15:04:18.201Z,23.82
2022-09-09T15:06:47.973Z,23.80
2022-09-09T15:09:14.245Z,23.88
2022-09-09T15:11:40.869Z,24.00
2022-09-09T15:14:07.149Z,24.06
2022-09-09T15:16:33.417Z,24.00
2022-09-09T15:18:59.700Z,23.95
2022-09-09T15:21:25.961Z,23.89
2022-09-09T15:23:52.304Z,23.96
2022-09-09T15:26:18.555Z,23.99
2022-09-09T15:28:44.855Z,23.99
2022-09-09T15:31:11.837Z,23.74
2022-09-09T15:33:38.502Z,23.79
2022-09-09T15:36:04.895Z,23.51
2022-09-09T15:38:31.149Z,23.39
2022-09-09T15:40:57.958Z,23.27
2022-09-09T15:43:24.147Z,23.18
2022-09-09T15:45:50.466Z,22.95
2022-09-09T15:48:16.773Z,22.83
2022-09-09T15:50:43.041Z,22.49
2022-09-09T15:53:09.313Z,22.50
2022-09-09T15:55:35.596Z,22.34
2022-09-09T15:58:02.406Z,22.28
2022-09-09T16:00:29.297Z,22.29
2022-09-09T16:02:55.525Z,22.45
2022-09-09T16:05:21.856Z,22.34
2022-09-09T16:07:48.773Z,22.46
2022-09-09T16:10:14.964Z,22.44
2022-09-09T16:12:41.227Z,22.48
2022-09-09T16:15:08.176Z,22.46
2022-09-09T16:17:38.570Z,22.40
2022-09-09T16:20:07.694Z,22.38
2022-09-09T16:22:33.970Z,22.37
2022-09-09T16:25:00.586Z,22.37
2022-09-09T16:27:26.852Z,22.31
2022-09-09T16:29:54.369Z,22.37
2022-09-09T16:32:21.213Z,22.38
2022-09-09T16:34:47.406Z,22.21
2022-09-09T16:37:13.688Z,22.15
2022-09-09T16:39:39.952Z,22.09
2022-09-09T16:42:06.267Z,22.06
2022-09-09T16:44:32.523Z,22.18
2022-09-09T16:47:00.960Z,22.20
2022-09-09T16:49:29.100Z,22.04
2022-09-09T16:51:57.268Z,22.01
2022-09-09T16:54:27.852Z,21.87
2022-09-09T16:56:54.160Z,21.95
2022-09-09T16:59:20.503Z,21.85
2022-09-09T17:01:46.991Z,21.94
2022-09-09T17:04:14.655Z,21.97
2022-09-09T17:06:42.248Z,21.73
2022-09-09T17:09:08.505Z,21.77
2022-09-09T17:11:34.824Z,21.71
2022-09-09T17:14:01.399Z,21.59
2022-09-09T17:16:28.414Z,21.61
2022-09-09T17:18:55.346Z,21.52
2022-09-09T17:21:21.613Z,21.49
2022-09-09T17:23:48.110Z,21.37
2022-09-09T17:26:14.374Z,21.30
2022-09-09T17:28:40.677Z,21.30
2022-09-09T17:31:07.686Z,21.20
2022-09-09T17:33:34.190Z,21.18
2022-09-09T17:36:00.459Z,21.12
2022-09-09T17:38:29.352Z,21.06
2022-09-09T17:40:55.627Z,21.00
2022-09-09T17:43:22.621Z,20.92
2022-09-09T17:45:49.628Z,20.88
2022-09-09T17:48:16.013Z,20.79
2022-09-09T17:50:42.957Z,20.57
2022-09-09T17:53:09.263Z,20.56
2022-09-09T17:55:35.701Z,20.61
2022-09-09T17:58:01.972Z,20.63
2022-09-09T18:00:31.220Z,20.58
2022-09-09T18:02:58.297Z,20.53
2022-09-09T18:05:24.658Z,20.36
2022-09-09T18:07:51.061Z,20.34
2022-09-09T18:10:17.335Z,20.40
2022-09-09T18:12:43.587Z,20.25
2022-09-09T18:15:09.851Z,20.17
2022-09-09T18:20:07.352Z,20.16
2022-09-09T18:22:34.052Z,20.16
2022-09-09T18:25:00.896Z,20.18
2022-09-09T18:27:28.515Z,20.01
2022-09-09T18:29:54.787Z,20.00
2022-09-09T18:32:21.331Z,20.07
2022-09-09T18:34:49.917Z,19.98
2022-09-09T18:37:18.891Z,19.96
2022-09-09T18:39:45.275Z,20.00
2022-09-09T18:42:12.766Z,20.05
2022-09-09T18:44:39.027Z,20.08
2022-09-09T18:47:05.312Z,20.07
2022-09-09T18:49:33.123Z,20.03
2022-09-09T18:51:59.401Z,19.99
2022-09-09T18:54:25.774Z,19.72
2022-09-09T18:56:52.984Z,19.70
2022-09-09T18:59:19.589Z,19.77
2022-09-09T19:01:46.540Z,19.80
2022-09-09T19:04:12.760Z,19.78
2022-09-09T19:06:39.066Z,19.77
2022-09-09T19:09:05.716Z,19.75
2022-09-09T19:11:32.773Z,19.71
2022-09-09T19:13:59.355Z,19.71
2022-09-09T19:16:25.760Z,19.70
2022-09-09T19:18:52.595Z,19.71
2022-09-09T19:21:18.848Z,19.68
2022-09-09T19:23:45.115Z,19.44
2022-09-09T19:26:11.546Z,19.45
2022-09-09T19:28:37.871Z,19.43
2022-09-09T19:31:04.554Z,19.45
2022-09-09T19:33:31.465Z,19.45
2022-09-09T19:35:57.720Z,19.32
2022-09-09T19:38:23.987Z,19.36
2022-09-09T19:40:50.295Z,19.40
2022-09-09T19:43:16.669Z,19.36
2022-09-09T19:45:42.958Z,19.30
2022-09-09T19:48:09.220Z,19.38
2022-09-09T19:50:36.742Z,19.25
2022-09-09T19:53:03.942Z,19.10
2022-09-09T19:55:31.016Z,19.25
2022-09-09T19:57:57.285Z,19.22
2022-09-09T20:00:23.693Z,19.18
2022-09-09T20:03:15.259Z,19.33
2022-09-09T20:05:37.366Z,19.36
2022-09-09T20:08:03.632Z,19.37
2022-09-09T20:10:30.936Z,19.32
2022-09-09T20:12:57.217Z,19.33
2022-09-09T20:15:23.482Z,19.20
2022-09-09T20:17:49.776Z,19.16
2022-09-09T20:20:16.032Z,19.06
2022-09-09T20:22:42.296Z,19.10
2022-09-09T20:25:08.566Z,19.12
2022-09-09T20:27:34.827Z,19.14
2022-09-09T20:30:01.110Z,19.20
2022-09-09T20:32:27.761Z,19.20
2022-09-09T20:34:54.288Z,19.22
2022-09-09T20:37:21.426Z,19.20
2022-09-09T20:39:47.694Z,19.01
2022-09-09T20:42:14.373Z,19.13
2022-09-09T20:44:40.640Z,19.18
2022-09-09T20:47:07.072Z,18.94
2022-09-09T20:49:35.189Z,19.11
2022-09-09T20:52:01.998Z,19.09
2022-09-09T20:54:30.203Z,19.05
2022-09-09T20:56:56.496Z,18.93
2022-09-09T20:59:22.759Z,19.03
2022-09-09T21:01:49.146Z,19.06
2022-09-09T21:04:15.537Z,19.10
2022-09-09T21:06:41.805Z,19.05
2022-09-09T21:09:08.336Z,18.80
2022-09-09T21:11:34.989Z,18.95
2022-09-09T21:14:01.256Z,18.88
2022-09-09T21:16:27.908Z,18.99
2022-09-09T21:18:54.159Z,18.98
2022-09-09T21:21:20.983Z,19.03
2022-09-09T21:23:47.311Z,19.02
2022-09-09T21:26:13.580Z,18.99
2022-09-09T21:28:39.839Z,19.03
2022-09-09T21:31:06.132Z,18.87
2022-09-09T21:33:32.647Z,18.90
2022-09-09T21:36:02.448Z,18.85
2022-09-09T21:38:28.989Z,18.73
2022-09-09T21:40:55.593Z,18.84
2022-09-09T21:43:23.462Z,18.83
2022-09-09T21:45:50.778Z,18.84
2022-09-09T21:48:17.353Z,18.63
2022-09-09T21:50:43.616Z,18.65
2022-09-09T21:53:11.029Z,18.73
2022-09-09T21:55:37.304Z,18.80
2022-09-09T21:58:03.601Z,18.76
2022-09-09T22:00:29.890Z,18.50
2022-09-09T22:02:56.173Z,18.51
2022-09-09T22:05:22.446Z,18.34
2022-09-09T22:07:48.737Z,18.14
2022-09-09T22:10:15.001Z,18.18
2022-09-09T22:12:41.281Z,18.26
2022-09-09T22:15:07.808Z,18.08
2022-09-09T22:17:34.260Z,18.22
2022-09-09T22:20:00.551Z,18.21
2022-09-09T22:22:26.843Z,17.84
2022-09-09T22:24:53.113Z,17.90
2022-09-09T22:27:19.413Z,18.00
2022-09-09T22:29:45.669Z,18.06
2022-09-09T22:32:11.983Z,18.07
2022-09-09T22:34:38.253Z,18.09
2022-09-09T22:37:04.532Z,18.09
2022-09-09T22:39:30.793Z,18.10
2022-09-09T22:41:57.076Z,18.02
2022-09-09T22:44:23.916Z,18.01
2022-09-09T22:46:50.188Z,18.02
2022-09-09T22:49:16.457Z,17.78
2022-09-09T22:51:42.724Z,17.75
2022-09-09T22:54:08.988Z,17.79
2022-09-09T22:56:35.251Z,17.82
2022-09-09T22:59:01.515Z,17.85
2022-09-09T23:01:27.872Z,17.60
2022-09-09T23:03:54.393Z,17.73
2022-09-09T23:06:22.154Z,17.60
2022-09-09T23:08:49.732Z,17.66
2022-09-09T23:11:15.989Z,17.57
2022-09-09T23:13:42.268Z,17.60
2022-09-09T23:16:08.610Z,17.55
2022-09-09T23:18:36.074Z,17.25
2022-09-09T23:21:03.294Z,17.40
2022-09-09T23:23:29.567Z,17.44
2022-09-09T23:25:55.852Z,17.49
2022-09-09T23:28:22.135Z,17.48
2022-09-09T23:30:48.426Z,17.47
2022-09-09T23:33:15.427Z,17.39
2022-09-09T23:35:41.841Z,17.39
2022-09-09T23:38:08.113Z,17.39
2022-09-09T23:40:34.365Z,17.38
2022-09-09T23:43:00.769Z,17.37
2022-09-09T23:45:27.028Z,17.29
2022-09-09T23:47:53.639Z,17.01
2022-09-09T23:50:20.209Z,16.95
2022-09-09T23:52:46.977Z,16.71
2022-09-09T23:55:13.255Z,16.74
2022-09-09T23:57:39.545Z,16.80
